Terminal Aerodrome Forecast
Issued by NWS Portland, OR

Home | Current Version | Previous Version | Text Only | Print | Product List | Glossary On
Versions: 1 2 3 4 5 6 7 8 9 10 11 12 13 14 15 16 17 18 19 20 21 22 23 24 25 26 27 28 29 30 31 32 33 34 35
000
FTUS46 KPQR 271121
TAFTTD
TAF
KTTD 271121Z 2712/2812 08004KT P6SM SCT250
     FM271300 00000KT 6SM BR SCT002 SCT250
      TEMPO 2713/2716 1/2SM FG OVC002
     FM271600 VRB03KT 2SM BR BKN005
     FM271800 23005KT P6SM SCT005 SCT150
     FM280500 23005KT P6SM BKN025=

USA.gov is the U.S. government's official web portal to all federal, state and local government web resources and services.